createdAt,value
2022-11-03T00:05:18.201Z,13.32
2022-11-03T00:07:44.767Z,12.98
2022-11-03T00:10:11.291Z,12.65
2022-11-03T00:12:38.447Z,12.30
2022-11-03T00:15:05.370Z,12.23
2022-11-03T00:17:31.910Z,13.77
2022-11-03T00:20:51.202Z,9.60
2022-11-03T00:23:35.112Z,10.10
2022-11-03T00:26:07.186Z,8.40
2022-11-03T00:28:34.517Z,8.37
2022-11-03T00:31:05.267Z,6.20
2022-11-03T00:33:32.839Z,7.50
2022-11-03T00:36:01.325Z,8.20
2022-11-03T00:38:31.270Z,7.10
2022-11-03T00:41:37.698Z,6.18
2022-11-03T00:44:04.375Z,8.07
2022-11-03T00:46:34.982Z,4.10
2022-11-03T00:49:02.025Z,4.75
2022-11-03T00:51:34.445Z,4.25
2022-11-03T00:54:03.401Z,5.03
2022-11-03T00:56:40.982Z,5.78
2022-11-03T00:59:28.561Z,5.53
2022-11-03T01:01:55.229Z,5.45
2022-11-03T01:04:40.189Z,7.28
2022-11-03T01:09:55.045Z,4.87
2022-11-03T01:12:21.587Z,5.57
2022-11-03T01:14:50.984Z,2.53
2022-11-03T01:17:23.716Z,5.32
2022-11-03T01:19:51.037Z,6.20
2022-11-03T01:22:42.438Z,3.12
2022-11-03T01:25:58.829Z,4.45
2022-11-03T01:28:47.674Z,8.00
2022-11-03T01:31:23.959Z,3.75
2022-11-03T01:33:52.567Z,6.45
2022-11-03T01:36:19.930Z,6.60
2022-11-03T01:38:47.074Z,3.33
2022-11-03T01:41:22.204Z,3.03
2022-11-03T01:44:11.736Z,5.20
2022-11-03T01:46:44.205Z,3.53
2022-11-03T01:49:17.480Z,5.40
2022-11-03T01:51:48.504Z,4.35
2022-11-03T01:54:19.765Z,3.72
2022-11-03T01:56:56.089Z,4.50
2022-11-03T01:59:58.411Z,4.28
2022-11-03T02:02:44.658Z,3.87
2022-11-03T02:05:13.486Z,5.85
2022-11-03T02:08:00.502Z,3.53
2022-11-03T02:10:27.118Z,5.80
2022-11-03T02:12:53.868Z,4.53
2022-11-03T02:15:22.290Z,3.20
2022-11-03T02:17:51.917Z,3.72
2022-11-03T02:20:24.240Z,5.18
2022-11-03T02:23:01.757Z,4.53
2022-11-03T02:25:42.612Z,4.80
2022-11-03T02:28:10.791Z,4.25
2022-11-03T02:30:46.286Z,4.35
2022-11-03T02:33:35.774Z,3.20
2022-11-03T02:38:46.062Z,6.50
2022-11-03T02:41:14.660Z,4.75
2022-11-03T02:43:43.999Z,5.18
2022-11-03T02:46:13.596Z,4.20
2022-11-03T02:52:57.634Z,2.37
2022-11-03T02:55:53.222Z,2.72
2022-11-03T02:58:34.931Z,3.55
2022-11-03T03:01:15.042Z,4.18
2022-11-03T03:03:48.159Z,6.18
2022-11-03T03:06:39.015Z,3.45
2022-11-03T03:09:10.415Z,5.60
2022-11-03T03:11:42.523Z,5.40
2022-11-03T03:14:22.869Z,3.15
2022-11-03T03:20:44.333Z,4.57
2022-11-03T03:23:23.580Z,6.18
2022-11-03T03:26:03.512Z,3.62
2022-11-03T03:28:38.778Z,3.72
2022-11-03T03:31:13.298Z,6.15
2022-11-03T03:33:43.549Z,3.08
2022-11-03T03:36:26.651Z,3.65
2022-11-03T03:39:02.670Z,2.78
2022-11-03T03:41:32.752Z,3.65
2022-11-03T03:44:03.137Z,3.78
2022-11-03T03:50:24.043Z,5.75
2022-11-03T03:52:57.262Z,8.48
2022-11-03T03:55:30.674Z,7.45
2022-11-03T03:57:59.496Z,6.05
2022-11-03T04:00:27.030Z,8.50
2022-11-03T04:02:56.291Z,7.12
2022-11-03T04:05:22.836Z,7.50
2022-11-03T04:07:49.586Z,7.22
2022-11-03T04:10:17.453Z,7.43
2022-11-03T04:13:03.923Z,6.95
2022-11-03T04:15:49.339Z,7.05
2022-11-03T04:18:35.076Z,5.32
2022-11-03T04:21:20.349Z,8.60
2022-11-03T04:23:46.956Z,9.80
2022-11-03T04:26:16.378Z,8.00
2022-11-03T04:28:43.892Z,8.63
2022-11-03T04:31:14.828Z,11.00
2022-11-03T04:33:41.900Z,11.55
2022-11-03T04:36:30.048Z,8.63
2022-11-03T04:38:56.657Z,9.60
2022-11-03T04:41:25.758Z,8.85
2022-11-03T04:43:53.437Z,7.15
2022-11-03T04:47:16.604Z,8.57
2022-11-03T04:50:03.076Z,10.75
2022-11-03T04:52:30.097Z,8.98
2022-11-03T04:54:56.688Z,9.25
2022-11-03T04:57:23.277Z,9.07
2022-11-03T04:59:53.346Z,9.48
2022-11-03T05:02:21.329Z,9.30
2022-11-03T05:04:47.918Z,8.60
2022-11-03T05:07:17.460Z,8.00
2022-11-03T05:09:44.108Z,9.70
2022-11-03T05:12:10.768Z,7.80
2022-11-03T05:14:37.640Z,8.95
2022-11-03T05:17:15.794Z,8.52
2022-11-03T05:20:28.162Z,8.63
2022-11-03T05:25:31.984Z,9.57
2022-11-03T05:27:58.668Z,9.00
2022-11-03T05:35:00.862Z,8.43
2022-11-03T05:37:31.009Z,11.30
2022-11-03T05:40:05.106Z,8.57
2022-11-03T05:42:42.062Z,11.35
2022-11-03T05:45:20.575Z,10.10
2022-11-03T05:47:49.045Z,7.95
2022-11-03T05:50:25.723Z,12.93
2022-11-03T05:52:56.216Z,12.93
2022-11-03T05:55:29.954Z,14.45
2022-11-03T05:58:00.124Z,16.77
2022-11-03T06:00:37.522Z,20.23
2022-11-03T06:03:05.529Z,19.70
2022-11-03T06:05:33.870Z,17.35
2022-11-03T06:08:03.924Z,17.20
2022-11-03T06:10:45.448Z,16.35
2022-11-03T06:13:16.373Z,18.05
2022-11-03T06:15:45.683Z,14.00
2022-11-03T06:18:22.131Z,11.88
2022-11-03T06:21:02.907Z,13.82
2022-11-03T06:23:32.770Z,13.10
2022-11-03T06:26:02.675Z,12.70
2022-11-03T06:28:36.934Z,8.68
2022-11-03T06:31:07.224Z,10.38
2022-11-03T06:33:35.894Z,10.98
2022-11-03T06:36:13.337Z,11.27
2022-11-03T06:38:39.994Z,10.13
2022-11-03T06:41:19.330Z,6.30
2022-11-03T06:43:45.906Z,10.20
2022-11-03T06:46:18.739Z,11.60
2022-11-03T06:48:45.585Z,11.60
2022-11-03T06:51:31.722Z,10.93
2022-11-03T06:54:00.468Z,13.68
2022-11-03T06:56:31.659Z,14.02
2022-11-03T06:58:58.490Z,13.45
2022-11-03T07:01:29.777Z,16.23
2022-11-03T07:04:03.016Z,13.32
2022-11-03T07:06:34.404Z,16.12
2022-11-03T07:09:05.014Z,15.65
2022-11-03T07:11:55.429Z,17.90
2022-11-03T07:14:31.694Z,17.85
2022-11-03T07:17:04.510Z,16.92
2022-11-03T07:19:36.118Z,16.10
2022-11-03T07:22:04.882Z,18.85
2022-11-03T07:24:34.810Z,21.27
2022-11-03T07:27:36.128Z,18.15
2022-11-03T07:30:08.371Z,18.48
2022-11-03T07:32:35.501Z,20.02
2022-11-03T07:35:53.372Z,21.23
2022-11-03T07:38:24.101Z,20.48
2022-11-03T07:40:53.134Z,18.05
2022-11-03T07:43:23.904Z,24.80
2022-11-03T07:45:50.453Z,22.10
2022-11-03T07:48:33.779Z,21.20
2022-11-03T07:51:12.408Z,22.87
2022-11-03T07:53:45.565Z,22.95
2022-11-03T07:56:24.902Z,22.35
2022-11-03T07:58:55.807Z,23.10
2022-11-03T08:01:26.477Z,29.15
2022-11-03T08:03:57.027Z,31.12
2022-11-03T08:06:23.554Z,28.30
2022-11-03T08:08:50.133Z,27.85
2022-11-03T08:11:16.950Z,26.05
2022-11-03T08:13:43.505Z,27.98
2022-11-03T08:16:10.147Z,26.15
2022-11-03T08:18:37.174Z,26.67
2022-11-03T08:21:03.997Z,26.15
2022-11-03T08:23:30.955Z,23.92
2022-11-03T08:25:57.970Z,27.13
2022-11-03T08:28:24.531Z,27.05
2022-11-03T08:30:51.137Z,27.08
2022-11-03T08:33:18.037Z,27.02
2022-11-03T08:35:44.710Z,24.95
2022-11-03T08:38:11.419Z,25.20
2022-11-03T08:40:37.933Z,23.92
2022-11-03T08:43:05.923Z,25.85
2022-11-03T08:45:32.654Z,28.33
2022-11-03T08:47:59.206Z,25.05
2022-11-03T08:50:25.856Z,24.40
2022-11-03T08:52:52.395Z,24.95
2022-11-03T08:55:19.038Z,26.00
2022-11-03T08:57:45.658Z,24.52
2022-11-03T09:00:12.962Z,24.98
2022-11-03T09:02:39.816Z,27.55
2022-11-03T09:05:07.824Z,25.52
2022-11-03T09:10:23.448Z,27.05
2022-11-03T09:12:54.021Z,27.02
2022-11-03T09:15:20.841Z,29.33
2022-11-03T09:17:47.365Z,26.30
2022-11-03T09:20:14.093Z,27.95
2022-11-03T09:22:40.642Z,27.42
2022-11-03T09:25:07.752Z,31.73
2022-11-03T09:27:34.374Z,30.23
2022-11-03T09:30:13.146Z,30.27
2022-11-03T09:32:41.078Z,31.33
2022-11-03T09:35:09.729Z,28.80
2022-11-03T09:37:36.935Z,32.70
2022-11-03T09:40:04.340Z,28.40
2022-11-03T09:42:34.453Z,28.67
2022-11-03T09:45:02.097Z,30.77
2022-11-03T09:47:33.672Z,28.73
2022-11-03T09:50:00.865Z,30.62
2022-11-03T09:52:27.696Z,33.83
2022-11-03T09:54:59.712Z,31.62
2022-11-03T09:57:29.309Z,30.60
2022-11-03T09:59:56.128Z,31.90
2022-11-03T10:02:29.396Z,29.17
2022-11-03T10:05:00.096Z,32.35
2022-11-03T10:07:28.826Z,31.02
2022-11-03T10:09:56.705Z,28.90
2022-11-03T10:12:25.278Z,29.45
2022-11-03T10:14:54.141Z,29.02
2022-11-03T10:17:26.756Z,32.20
2022-11-03T10:19:56.519Z,29.48
2022-11-03T10:22:23.132Z,32.72
2022-11-03T10:25:09.619Z,31.85
2022-11-03T10:27:36.151Z,36.22
2022-11-03T10:30:09.607Z,36.15
2022-11-03T10:32:36.494Z,35.85
2022-11-03T10:35:25.066Z,36.47
2022-11-03T10:37:51.825Z,40.10
2022-11-03T10:40:51.762Z,40.15
2022-11-03T10:43:18.313Z,38.72
2022-11-03T10:45:44.908Z,38.65
2022-11-03T10:48:11.433Z,36.15
2022-11-03T10:50:40.298Z,39.88
2022-11-03T10:53:17.472Z,36.40
2022-11-03T10:55:44.750Z,33.58
2022-11-03T10:58:11.615Z,40.63
2022-11-03T11:00:41.559Z,38.30
2022-11-03T11:03:08.708Z,43.70
2022-11-03T11:05:35.547Z,40.03
2022-11-03T11:08:02.651Z,39.72
2022-11-03T11:10:32.599Z,34.25
2022-11-03T11:13:19.010Z,34.42
2022-11-03T11:15:53.959Z,36.63
2022-11-03T11:18:29.869Z,40.50
2022-11-03T11:20:57.920Z,36.75
2022-11-03T11:23:27.332Z,38.05
2022-11-03T11:26:09.172Z,35.80
2022-11-03T11:28:37.302Z,32.60
2022-11-03T11:31:22.726Z,33.10
2022-11-03T11:33:50.148Z,30.95
2022-11-03T11:36:25.188Z,34.70
2022-11-03T11:38:52.404Z,32.72
2022-11-03T11:41:20.876Z,34.97
2022-11-03T11:43:47.599Z,32.05
2022-11-03T11:46:23.493Z,33.47
2022-11-03T11:49:17.090Z,34.80
2022-11-03T11:51:43.641Z,33.00
2022-11-03T11:54:17.898Z,34.80
2022-11-03T11:56:49.942Z,35.30
2022-11-03T11:59:24.769Z,30.42
2022-11-03T12:01:55.306Z,37.85
2022-11-03T12:04:33.195Z,36.28
2022-11-03T12:06:59.752Z,37.38
2022-11-03T12:09:28.471Z,36.70
2022-11-03T12:11:59.415Z,40.28
2022-11-03T12:14:46.068Z,37.38
2022-11-03T12:17:18.693Z,30.20
2022-11-03T12:19:47.429Z,33.55
2022-11-03T12:22:29.506Z,37.03
2022-11-03T12:24:58.730Z,36.72
2022-11-03T12:27:25.259Z,38.70
2022-11-03T12:30:03.738Z,37.60
2022-11-03T12:32:33.530Z,34.55
2022-11-03T12:35:02.030Z,36.85
2022-11-03T12:37:28.605Z,35.33
2022-11-03T12:39:55.146Z,36.13
2022-11-03T12:42:22.644Z,39.00
2022-11-03T12:44:49.239Z,38.40
2022-11-03T12:47:15.790Z,39.47
2022-11-03T12:49:42.528Z,41.50
2022-11-03T12:52:10.570Z,37.50
2022-11-03T12:54:37.117Z,37.92
2022-11-03T12:57:03.761Z,37.55
2022-11-03T12:59:30.315Z,32.28
2022-11-03T13:01:57.023Z,34.33
2022-11-03T13:04:23.670Z,34.20
2022-11-03T13:06:50.232Z,36.58
2022-11-03T13:09:16.814Z,36.38
2022-11-03T13:12:01.831Z,30.25
2022-11-03T13:14:28.436Z,33.63
2022-11-03T13:16:54.982Z,33.50
2022-11-03T13:19:21.522Z,31.73
2022-11-03T13:21:48.302Z,32.90
2022-11-03T13:24:14.892Z,30.70
2022-11-03T13:26:41.511Z,34.05
2022-11-03T13:29:08.263Z,36.20
2022-11-03T13:31:35.800Z,35.20
2022-11-03T13:34:02.467Z,35.95
2022-11-03T13:36:29.086Z,38.83
2022-11-03T13:38:55.656Z,30.40
2022-11-03T13:41:22.182Z,34.88
2022-11-03T13:43:48.814Z,35.03
2022-11-03T13:46:15.336Z,34.47
2022-11-03T13:51:28.409Z,33.78
2022-11-03T13:59:28.608Z,33.90
2022-11-03T14:04:43.340Z,29.23
2022-11-03T14:07:10.704Z,32.50
2022-11-03T14:12:27.397Z,34.38
2022-11-03T14:14:54.028Z,29.77
2022-11-03T14:17:20.565Z,29.55
2022-11-03T14:20:05.018Z,31.40
2022-11-03T14:22:32.469Z,27.98
2022-11-03T14:24:59.632Z,25.85
2022-11-03T14:27:26.298Z,28.38
2022-11-03T14:30:23.905Z,29.45
2022-11-03T14:36:24.594Z,28.60
2022-11-03T14:38:51.260Z,33.15
2022-11-03T14:41:36.691Z,31.87
2022-11-03T14:44:06.240Z,30.10
2022-11-03T14:46:33.478Z,28.27
2022-11-03T14:49:01.790Z,29.50
2022-11-03T14:51:29.574Z,30.08
2022-11-03T14:53:58.547Z,33.15
2022-11-03T14:56:25.387Z,31.35
2022-11-03T14:58:52.519Z,29.48
2022-11-03T15:01:20.920Z,31.95
2022-11-03T15:03:47.826Z,30.65
2022-11-03T15:06:14.653Z,37.42
2022-11-03T15:08:41.246Z,32.85
2022-11-03T15:13:56.488Z,31.35
2022-11-03T15:16:23.301Z,33.33
2022-11-03T15:18:50.850Z,30.45
2022-11-03T15:21:20.604Z,31.10
2022-11-03T15:26:33.994Z,35.45
2022-11-03T15:29:00.565Z,29.20
2022-11-03T15:31:29.902Z,28.45
2022-11-03T15:33:56.485Z,27.65
2022-11-03T15:36:23.676Z,28.65
2022-11-03T15:38:50.285Z,28.30
2022-11-03T15:41:16.887Z,34.08
2022-11-03T15:43:47.475Z,37.42
2022-11-03T15:46:15.180Z,35.08
2022-11-03T15:48:42.660Z,33.20
2022-11-03T15:51:09.733Z,34.70
2022-11-03T15:53:36.685Z,37.47
2022-11-03T15:56:04.035Z,36.95
2022-11-03T15:58:34.166Z,43.63
2022-11-03T16:01:03.088Z,41.00
2022-11-03T16:03:30.558Z,40.28
2022-11-03T16:09:59.924Z,42.22
2022-11-03T16:12:26.515Z,44.33
2022-11-03T16:14:53.715Z,43.53
2022-11-03T16:17:22.363Z,42.70
2022-11-03T16:19:49.483Z,45.83
2022-11-03T16:22:16.106Z,45.88
2022-11-03T16:27:31.154Z,49.45
2022-11-03T16:29:57.967Z,49.50
2022-11-03T16:32:24.670Z,56.53
2022-11-03T16:34:51.227Z,62.42
2022-11-03T16:37:17.862Z,53.22
2022-11-03T16:40:16.344Z,52.20
2022-11-03T16:43:36.692Z,54.67
2022-11-03T16:46:03.339Z,57.25
2022-11-03T16:48:29.909Z,58.67
2022-11-03T16:50:57.999Z,49.05
2022-11-03T16:53:24.721Z,55.55
2022-11-03T16:55:51.254Z,53.22
2022-11-03T16:58:17.889Z,56.10
2022-11-03T17:00:44.472Z,47.40
2022-11-03T17:03:11.040Z,52.22
2022-11-03T17:05:37.852Z,57.65
2022-11-03T17:13:22.900Z,54.00
2022-11-03T17:15:49.554Z,46.78
2022-11-03T17:18:18.791Z,45.90
2022-11-03T17:20:45.358Z,48.13
2022-11-03T17:23:11.926Z,49.47
2022-11-03T17:25:38.720Z,47.17
2022-11-03T17:28:05.829Z,47.85
2022-11-03T17:30:34.799Z,47.42
2022-11-03T17:33:07.643Z,46.25
2022-11-03T17:35:42.508Z,50.03
2022-11-03T17:38:19.099Z,47.17
2022-11-03T17:40:47.781Z,49.92
2022-11-03T17:43:22.465Z,46.60
2022-11-03T17:45:49.286Z,45.70
2022-11-03T17:48:16.045Z,50.85
2022-11-03T17:50:46.453Z,48.05
2022-11-03T17:53:22.335Z,49.13
2022-11-03T17:56:08.898Z,50.05
2022-11-03T17:58:43.214Z,49.17
2022-11-03T18:01:14.057Z,44.50
2022-11-03T18:03:41.181Z,50.97
2022-11-03T18:06:19.348Z,51.63
2022-11-03T18:08:47.514Z,48.08
2022-11-03T18:11:48.823Z,52.78
2022-11-03T18:14:16.032Z,50.17
2022-11-03T18:16:42.627Z,43.33
2022-11-03T18:19:14.039Z,54.60
2022-11-03T18:21:41.189Z,53.00
2022-11-03T18:24:19.610Z,52.47
2022-11-03T18:26:46.224Z,54.63
2022-11-03T18:29:12.952Z,51.85
2022-11-03T18:31:49.606Z,50.70
2022-11-03T18:36:53.043Z,45.95
2022-11-03T18:39:24.153Z,45.28
2022-11-03T18:41:50.761Z,46.80
2022-11-03T18:44:44.628Z,49.47
2022-11-03T18:47:11.197Z,44.35
2022-11-03T18:49:37.883Z,45.83
2022-11-03T18:52:13.952Z,49.50
2022-11-03T18:54:45.113Z,50.90
2022-11-03T18:57:12.734Z,49.38
2022-11-03T18:59:44.498Z,46.37
2022-11-03T19:02:18.732Z,52.17
2022-11-03T19:04:45.670Z,46.15
2022-11-03T19:07:25.121Z,52.53
2022-11-03T19:09:52.412Z,49.58
2022-11-03T19:12:19.567Z,49.60
2022-11-03T19:14:51.734Z,49.30
2022-11-03T19:17:23.450Z,50.12
2022-11-03T19:19:52.593Z,49.25
2022-11-03T19:22:21.561Z,46.15
2022-11-03T19:24:48.261Z,44.42
2022-11-03T19:27:25.526Z,51.50
2022-11-03T19:29:52.747Z,45.28
2022-11-03T19:32:41.308Z,40.33
2022-11-03T19:35:23.428Z,55.95
2022-11-03T19:37:55.274Z,50.78
2022-11-03T19:40:22.153Z,49.58
2022-11-03T19:42:48.886Z,44.10
2022-11-03T19:45:20.263Z,47.80
2022-11-03T19:50:26.390Z,49.22
2022-11-03T19:53:04.067Z,45.65
2022-11-03T20:01:09.181Z,44.10
2022-11-03T20:03:36.490Z,44.78
2022-11-03T20:06:03.222Z,45.88
2022-11-03T20:08:42.121Z,42.83
2022-11-03T20:11:08.784Z,44.00
2022-11-03T20:13:55.801Z,46.70
2022-11-03T20:16:36.088Z,43.45
2022-11-03T20:21:51.716Z,46.45
2022-11-03T20:24:19.462Z,45.95
2022-11-03T20:26:46.303Z,45.72
2022-11-03T20:29:14.244Z,44.03
2022-11-03T20:31:43.306Z,40.47
2022-11-03T20:34:14.614Z,43.95
2022-11-03T20:36:48.212Z,41.85
2022-11-03T20:39:17.130Z,45.05
2022-11-03T20:41:47.191Z,42.78
2022-11-03T20:44:15.339Z,41.37
2022-11-03T20:46:42.914Z,39.80
2022-11-03T20:49:12.192Z,37.92
2022-11-03T20:51:48.283Z,43.38
2022-11-03T20:54:18.819Z,42.17
2022-11-03T20:56:46.320Z,35.85
2022-11-03T21:01:48.434Z,42.65
2022-11-03T21:04:40.330Z,41.40
2022-11-03T21:07:46.052Z,38.85
2022-11-03T21:10:20.573Z,36.80
2022-11-03T21:12:48.055Z,42.00
2022-11-03T21:16:03.765Z,37.08
2022-11-03T21:18:47.624Z,39.65
2022-11-03T21:21:20.518Z,36.60
2022-11-03T21:23:47.772Z,37.25
2022-11-03T21:26:14.427Z,38.08
2022-11-03T21:31:36.282Z,34.65
2022-11-03T21:34:02.831Z,36.58
2022-11-03T21:36:29.391Z,37.60
2022-11-03T21:39:45.985Z,36.38
2022-11-03T21:42:51.262Z,37.80
2022-11-03T21:45:33.209Z,34.55
2022-11-03T21:48:19.908Z,35.67
2022-11-03T21:50:47.270Z,33.53
2022-11-03T21:53:14.046Z,33.88
2022-11-03T21:55:40.973Z,37.28
2022-11-03T21:58:07.826Z,35.33
2022-11-03T22:00:35.048Z,37.70
2022-11-03T22:03:01.654Z,34.78
2022-11-03T22:05:28.617Z,39.33
2022-11-03T22:07:55.208Z,29.58
2022-11-03T22:10:21.850Z,32.42
2022-11-03T22:18:14.550Z,37.30
2022-11-03T22:21:00.403Z,34.17
2022-11-03T22:23:45.851Z,34.55
2022-11-03T22:26:34.169Z,32.47
2022-11-03T22:35:30.863Z,34.25
2022-11-03T22:38:08.380Z,31.73
2022-11-03T22:40:54.982Z,31.00
2022-11-03T22:43:41.027Z,33.22
2022-11-03T22:46:09.150Z,30.42
2022-11-03T22:48:36.426Z,32.65
2022-11-03T22:51:14.622Z,33.60
2022-11-03T22:54:01.002Z,32.22
2022-11-03T22:56:29.531Z,31.30
2022-11-03T22:58:56.294Z,30.83
2022-11-03T23:01:26.796Z,33.78
2022-11-03T23:04:09.486Z,33.22
2022-11-03T23:06:38.974Z,29.70
2022-11-03T23:09:05.963Z,29.27
2022-11-03T23:11:33.588Z,30.42
2022-11-03T23:17:54.034Z,27.60
2022-11-03T23:20:39.456Z,30.20
2022-11-03T23:23:06.216Z,30.23
2022-11-03T23:25:33.029Z,29.17
2022-11-03T23:27:59.586Z,28.95
2022-11-03T23:30:26.107Z,29.65
2022-11-03T23:32:53.819Z,30.77
2022-11-03T23:35:20.347Z,29.77
2022-11-03T23:37:46.888Z,27.67
2022-11-03T23:40:17.178Z,32.08
2022-11-03T23:49:04.514Z,26.48
2022-11-03T23:51:32.317Z,26.37
2022-11-03T23:54:00.050Z,27.23
2022-11-03T23:56:47.985Z,27.98
2022-11-03T23:59:16.419Z,28.55
